createdAt,value
2023-02-08T00:01:07.877Z,67.70
2023-02-08T00:03:36.054Z,67.77
2023-02-08T00:06:03.910Z,67.67
2023-02-08T00:08:33.136Z,68.15
2023-02-08T00:11:00.785Z,68.19
2023-02-08T00:13:28.686Z,67.94
2023-02-08T00:15:56.560Z,68.25
2023-02-08T00:18:25.621Z,68.29
2023-02-08T00:20:55.855Z,68.30
2023-02-08T00:23:23.710Z,68.48
2023-02-08T00:25:51.990Z,68.31
2023-02-08T00:28:20.482Z,68.77
2023-02-08T00:30:49.563Z,68.16
2023-02-08T00:33:17.178Z,68.71
2023-02-08T00:35:46.518Z,68.37
2023-02-08T00:38:14.406Z,68.19
2023-02-08T00:40:42.499Z,68.70
2023-02-08T00:43:10.511Z,68.46
2023-02-08T00:45:38.123Z,68.32
2023-02-08T00:48:05.710Z,68.59
2023-02-08T00:50:33.738Z,68.57
2023-02-08T00:53:02.826Z,68.28
2023-02-08T00:55:30.891Z,68.88
2023-02-08T00:57:58.507Z,68.49
2023-02-08T01:00:26.645Z,68.53
2023-02-08T01:02:54.354Z,69.03
2023-02-08T01:05:22.541Z,68.64
2023-02-08T01:07:50.187Z,69.10
2023-02-08T01:10:19.358Z,68.85
2023-02-08T01:12:46.940Z,69.21
2023-02-08T01:15:14.979Z,68.68
2023-02-08T01:17:42.604Z,69.44
2023-02-08T01:20:11.779Z,69.18
2023-02-08T01:22:39.398Z,69.17
2023-02-08T01:25:07.839Z,69.38
2023-02-08T01:27:38.753Z,69.61
2023-02-08T01:30:07.765Z,69.90
2023-02-08T01:32:36.065Z,69.76
2023-02-08T01:35:04.052Z,69.76
2023-02-08T01:37:31.849Z,70.08
2023-02-08T01:39:59.811Z,70.15
2023-02-08T01:42:27.570Z,70.14
2023-02-08T01:45:32.034Z,70.64
2023-02-08T01:48:07.567Z,69.96
2023-02-08T01:50:44.104Z,70.14
2023-02-08T01:53:12.417Z,70.00
2023-02-08T01:55:46.200Z,71.07
2023-02-08T01:58:16.319Z,71.00
2023-02-08T02:00:46.092Z,71.10
2023-02-08T02:03:14.735Z,70.73
2023-02-08T02:05:45.259Z,71.25
2023-02-08T02:08:14.198Z,71.31
2023-02-08T02:10:44.178Z,71.67
2023-02-08T02:13:14.665Z,71.51
2023-02-08T02:15:46.317Z,71.38
2023-02-08T02:18:23.156Z,71.64
2023-02-08T02:21:15.326Z,71.68
2023-02-08T02:24:14.713Z,72.12
2023-02-08T02:27:11.054Z,71.60
2023-02-08T02:30:12.731Z,72.22
2023-02-08T02:32:55.191Z,72.50
2023-02-08T02:35:30.808Z,71.79
2023-02-08T02:38:10.068Z,71.93
2023-02-08T02:40:48.602Z,71.87
2023-02-08T02:43:40.008Z,72.02
2023-02-08T02:46:17.084Z,72.50
2023-02-08T02:48:50.920Z,73.09
2023-02-08T02:51:25.165Z,72.90
2023-02-08T02:53:56.676Z,72.97
2023-02-08T02:56:28.911Z,72.77
2023-02-08T02:58:59.670Z,72.77
2023-02-08T03:01:30.110Z,72.53
2023-02-08T03:03:59.510Z,73.10
2023-02-08T03:06:42.823Z,72.54
2023-02-08T03:09:47.778Z,73.34
2023-02-08T03:12:31.060Z,72.86
2023-02-08T03:15:04.104Z,73.40
2023-02-08T03:17:40.436Z,73.30
2023-02-08T03:20:11.838Z,73.61
2023-02-08T03:22:46.652Z,72.61
2023-02-08T03:25:21.663Z,73.15
2023-02-08T03:27:58.171Z,72.95
2023-02-08T03:30:32.321Z,73.76
2023-02-08T03:33:06.777Z,74.18
2023-02-08T03:35:41.365Z,73.53
2023-02-08T03:38:12.309Z,73.42
2023-02-08T03:40:43.006Z,73.79
2023-02-08T03:43:17.096Z,73.53
2023-02-08T03:45:50.671Z,73.54
2023-02-08T03:48:21.226Z,73.45
2023-02-08T03:50:53.799Z,74.49
2023-02-08T03:53:24.359Z,74.32
2023-02-08T03:55:57.008Z,73.63
2023-02-08T03:58:29.938Z,74.06
2023-02-08T04:01:02.923Z,73.90
2023-02-08T04:03:32.413Z,73.54
2023-02-08T04:06:01.554Z,74.20
2023-02-08T04:08:29.493Z,74.15
2023-02-08T04:10:57.159Z,73.92
2023-02-08T04:13:24.764Z,73.23
2023-02-08T04:15:52.412Z,73.59
2023-02-08T04:18:20.496Z,73.42
2023-02-08T04:20:48.103Z,74.07
2023-02-08T04:23:17.699Z,73.71
2023-02-08T04:25:45.369Z,74.26
2023-02-08T04:28:13.938Z,73.77
2023-02-08T04:30:42.019Z,73.91
2023-02-08T04:33:11.827Z,73.59
2023-02-08T04:35:39.462Z,74.06
2023-02-08T04:38:07.257Z,74.23
2023-02-08T04:40:36.296Z,73.66
2023-02-08T04:43:04.285Z,73.89
2023-02-08T04:45:32.897Z,74.18
2023-02-08T04:48:02.550Z,73.38
2023-02-08T04:50:30.379Z,73.23
2023-02-08T04:52:58.313Z,73.94
2023-02-08T04:55:26.305Z,74.25
2023-02-08T04:57:55.260Z,73.55
2023-02-08T05:00:23.064Z,73.13
2023-02-08T05:02:54.618Z,73.67
2023-02-08T05:05:22.719Z,73.84
2023-02-08T05:07:51.380Z,73.76
2023-02-08T05:10:19.530Z,73.95
2023-02-08T05:12:47.423Z,73.20
2023-02-08T05:15:16.327Z,74.18
2023-02-08T05:17:44.187Z,73.90
2023-02-08T05:20:13.925Z,74.38
2023-02-08T05:22:41.859Z,73.28
2023-02-08T05:25:10.767Z,73.61
2023-02-08T05:27:38.561Z,73.16
2023-02-08T05:30:07.609Z,73.01
2023-02-08T05:32:36.644Z,73.22
2023-02-08T05:35:04.627Z,72.77
2023-02-08T05:37:32.203Z,74.10
2023-02-08T05:40:00.198Z,73.54
2023-02-08T05:42:28.036Z,73.58
2023-02-08T05:44:55.619Z,74.02
2023-02-08T05:47:23.211Z,74.00
2023-02-08T05:49:52.452Z,73.95
2023-02-08T05:52:20.043Z,73.15
2023-02-08T05:54:47.961Z,74.16
2023-02-08T05:57:15.559Z,73.69
2023-02-08T05:59:43.503Z,73.68
2023-02-08T06:02:11.289Z,74.53
2023-02-08T06:04:39.324Z,74.08
2023-02-08T06:07:08.300Z,74.80
2023-02-08T06:09:36.441Z,74.76
2023-02-08T06:12:04.232Z,73.66
2023-02-08T06:14:32.638Z,73.87
2023-02-08T06:17:00.285Z,73.78
2023-02-08T06:19:28.643Z,74.34
2023-02-08T06:21:56.453Z,74.27
2023-02-08T06:24:25.741Z,74.43
2023-02-08T06:26:53.307Z,74.13
2023-02-08T06:29:20.892Z,74.02
2023-02-08T06:31:48.822Z,73.76
2023-02-08T06:34:16.681Z,74.48
2023-02-08T06:36:45.340Z,73.49
2023-02-08T06:39:12.984Z,73.21
2023-02-08T06:41:41.917Z,73.52
2023-02-08T06:44:09.504Z,73.27
2023-02-08T06:46:37.100Z,73.96
2023-02-08T06:49:05.044Z,73.96
2023-02-08T06:51:32.658Z,74.13
2023-02-08T06:54:00.296Z,73.74
2023-02-08T06:56:27.888Z,73.64
2023-02-08T06:58:57.150Z,73.38
2023-02-08T07:01:25.282Z,73.46
2023-02-08T07:03:52.906Z,73.76
2023-02-08T07:06:21.294Z,73.25
2023-02-08T07:08:48.964Z,73.73
2023-02-08T07:11:19.800Z,73.35
2023-02-08T07:13:48.684Z,73.00
2023-02-08T07:16:18.880Z,73.06
2023-02-08T07:18:46.672Z,73.01
2023-02-08T07:21:14.632Z,71.99
2023-02-08T07:23:42.556Z,71.86
2023-02-08T07:26:12.614Z,72.31
2023-02-08T07:28:40.396Z,71.92
2023-02-08T07:31:08.985Z,71.34
2023-02-08T07:33:38.403Z,71.68
2023-02-08T07:36:07.927Z,71.00
2023-02-08T07:38:36.717Z,71.16
2023-02-08T07:41:06.004Z,71.26
2023-02-08T07:43:35.354Z,71.36
2023-02-08T07:46:08.719Z,70.75
2023-02-08T07:48:40.159Z,71.03
2023-02-08T07:51:09.972Z,71.06
2023-02-08T07:53:38.004Z,71.24
2023-02-08T07:56:06.509Z,70.76
2023-02-08T07:58:34.106Z,71.31
2023-02-08T08:01:12.522Z,69.88
2023-02-08T08:03:50.565Z,69.82
2023-02-08T08:06:19.010Z,69.50
2023-02-08T08:08:47.634Z,69.35
2023-02-08T08:11:15.677Z,69.45
2023-02-08T08:13:43.587Z,68.76
2023-02-08T08:16:11.699Z,69.39
2023-02-08T08:18:39.324Z,68.75
2023-02-08T08:21:08.957Z,67.95
2023-02-08T08:23:37.184Z,68.53
2023-02-08T08:26:09.135Z,67.79
2023-02-08T08:28:37.198Z,68.23
2023-02-08T08:31:05.180Z,67.82
2023-02-08T08:33:32.812Z,67.59
2023-02-08T08:36:01.033Z,66.90
2023-02-08T08:38:29.940Z,66.67
2023-02-08T08:40:58.111Z,67.46
2023-02-08T08:43:25.761Z,67.12
2023-02-08T08:45:54.003Z,65.74
2023-02-08T08:48:21.600Z,66.04
2023-02-08T08:50:50.390Z,65.57
2023-02-08T08:53:19.117Z,65.07
2023-02-08T08:55:48.544Z,65.11
2023-02-08T08:58:16.518Z,64.86
2023-02-08T09:00:44.121Z,64.47
2023-02-08T09:03:12.486Z,63.66
2023-02-08T09:05:40.194Z,63.85
2023-02-08T09:08:07.873Z,63.39
2023-02-08T09:10:35.455Z,62.90
2023-02-08T09:13:05.358Z,61.31
2023-02-08T09:15:32.969Z,58.71
2023-02-08T09:18:00.889Z,58.60
2023-02-08T09:20:28.516Z,58.83
2023-02-08T09:22:56.961Z,56.36
2023-02-08T09:25:24.945Z,56.24
2023-02-08T09:27:53.079Z,54.96
2023-02-08T09:30:22.216Z,55.61
2023-02-08T09:32:50.427Z,55.44
2023-02-08T09:35:18.041Z,53.44
2023-02-08T09:37:46.268Z,53.13
2023-02-08T09:40:23.472Z,51.73
2023-02-08T09:42:59.228Z,51.11
2023-02-08T09:45:51.078Z,51.93
2023-02-08T09:48:29.635Z,52.77
2023-02-08T09:51:01.974Z,51.89
2023-02-08T09:53:34.323Z,51.83
2023-02-08T09:56:05.726Z,52.59
2023-02-08T09:58:40.687Z,51.69
2023-02-08T10:01:18.587Z,50.69
2023-02-08T10:03:48.306Z,51.07
2023-02-08T10:06:18.245Z,51.52
2023-02-08T10:08:47.704Z,52.17
2023-02-08T10:11:40.987Z,50.52
2023-02-08T10:14:23.473Z,52.54
2023-02-08T10:17:05.092Z,52.41
2023-02-08T10:19:50.946Z,52.83
2023-02-08T10:22:29.916Z,51.77
2023-02-08T10:25:17.932Z,51.53
2023-02-08T10:27:58.550Z,51.93
2023-02-08T10:30:33.543Z,51.90
2023-02-08T10:33:08.060Z,50.68
2023-02-08T10:35:38.852Z,50.89
2023-02-08T10:38:26.613Z,50.69
2023-02-08T10:40:59.703Z,51.35
2023-02-08T10:43:38.374Z,52.56
2023-02-08T10:46:13.110Z,51.84
2023-02-08T10:48:53.732Z,52.37
2023-02-08T10:51:22.712Z,51.60
2023-02-08T10:53:51.244Z,49.86
2023-02-08T10:56:32.201Z,49.73
2023-02-08T10:59:01.568Z,51.20
2023-02-08T11:01:29.841Z,50.45
2023-02-08T11:04:07.466Z,49.51
2023-02-08T11:06:35.081Z,48.62
2023-02-08T11:09:03.435Z,48.83
2023-02-08T11:11:36.842Z,49.56
2023-02-08T11:14:10.619Z,49.92
2023-02-08T11:16:39.266Z,49.61
2023-02-08T11:19:22.795Z,49.25
2023-02-08T11:21:52.994Z,49.31
2023-02-08T11:24:29.099Z,49.66
2023-02-08T11:26:57.330Z,50.38
2023-02-08T11:29:27.461Z,50.56
2023-02-08T11:32:01.080Z,50.17
2023-02-08T11:34:33.159Z,51.24
2023-02-08T11:37:03.603Z,50.77
2023-02-08T11:39:39.328Z,49.07
2023-02-08T11:42:08.232Z,48.55
2023-02-08T11:44:38.610Z,47.46
2023-02-08T11:47:08.637Z,48.61
2023-02-08T11:49:40.839Z,48.58
2023-02-08T11:52:21.163Z,49.14
2023-02-08T11:54:49.268Z,50.31
2023-02-08T11:57:20.350Z,50.66
2023-02-08T11:59:49.826Z,52.87
2023-02-08T12:02:35.809Z,52.31
2023-02-08T12:05:12.494Z,52.54
2023-02-08T12:07:53.961Z,52.38
2023-02-08T12:10:58.645Z,52.51
2023-02-08T12:13:51.342Z,52.88
2023-02-08T12:16:34.380Z,53.20
2023-02-08T12:19:35.504Z,52.21
2023-02-08T12:22:08.633Z,51.41
2023-02-08T12:24:49.127Z,51.26
2023-02-08T12:27:28.242Z,51.15
2023-02-08T12:30:08.338Z,50.58
2023-02-08T12:32:53.942Z,50.08
2023-02-08T12:36:01.467Z,49.61
2023-02-08T12:39:17.824Z,51.79
2023-02-08T12:41:56.372Z,51.51
2023-02-08T12:44:36.810Z,50.93
2023-02-08T12:47:18.871Z,51.00
2023-02-08T12:49:56.681Z,51.92
2023-02-08T12:52:34.373Z,51.70
2023-02-08T12:55:14.107Z,51.40
2023-02-08T12:57:45.676Z,51.52
2023-02-08T13:00:20.849Z,51.47
2023-02-08T13:02:57.482Z,51.94
2023-02-08T13:05:29.810Z,53.33
2023-02-08T13:08:04.639Z,53.08
2023-02-08T13:10:37.899Z,54.68
2023-02-08T13:13:13.398Z,53.88
2023-02-08T13:15:46.310Z,55.31
2023-02-08T13:18:18.693Z,55.60
2023-02-08T13:20:48.892Z,54.69
2023-02-08T13:23:25.533Z,54.82
2023-02-08T13:25:58.413Z,55.52
2023-02-08T13:28:27.879Z,56.09
2023-02-08T13:31:00.995Z,55.66
2023-02-08T13:33:35.833Z,56.59
2023-02-08T13:36:04.053Z,56.84
2023-02-08T13:38:34.764Z,57.85
2023-02-08T13:41:14.548Z,57.63
2023-02-08T13:43:46.845Z,57.71
2023-02-08T13:46:15.878Z,57.12
2023-02-08T13:48:46.148Z,58.36
2023-02-08T13:51:54.556Z,58.99
2023-02-08T13:54:22.525Z,58.20
2023-02-08T13:56:53.142Z,58.37
2023-02-08T13:59:42.226Z,57.96
2023-02-08T14:02:29.497Z,58.63
2023-02-08T14:05:31.027Z,58.69
2023-02-08T14:08:00.628Z,58.82
2023-02-08T14:10:37.796Z,59.00
2023-02-08T14:13:17.733Z,59.46
2023-02-08T14:15:45.768Z,59.87
2023-02-08T14:18:25.323Z,60.21
2023-02-08T14:21:02.540Z,58.99
2023-02-08T14:23:32.406Z,58.34
2023-02-08T14:26:07.148Z,58.04
2023-02-08T14:28:40.251Z,57.91
2023-02-08T14:31:11.059Z,58.83
2023-02-08T14:33:41.471Z,59.32
2023-02-08T14:36:24.586Z,58.62
2023-02-08T14:39:22.528Z,58.70
2023-02-08T14:41:57.189Z,58.79
2023-02-08T14:45:03.094Z,59.13
2023-02-08T14:47:55.054Z,59.29
2023-02-08T14:50:26.266Z,59.53
2023-02-08T14:53:06.793Z,59.59
2023-02-08T14:55:46.295Z,60.32
2023-02-08T14:58:27.947Z,60.20
2023-02-08T15:01:07.461Z,59.85
2023-02-08T15:03:37.733Z,60.63
2023-02-08T15:06:49.760Z,59.64
2023-02-08T15:09:21.573Z,58.92
2023-02-08T15:11:54.189Z,59.16
2023-02-08T15:14:22.609Z,59.22
2023-02-08T15:16:53.709Z,60.17
2023-02-08T15:19:25.262Z,60.89
2023-02-08T15:21:53.360Z,60.63
2023-02-08T15:24:23.398Z,61.76
2023-02-08T15:26:53.592Z,61.67
2023-02-08T15:29:30.028Z,61.96
2023-02-08T15:32:05.424Z,61.60
2023-02-08T15:34:33.327Z,62.07
2023-02-08T15:37:01.329Z,63.35
2023-02-08T15:39:35.171Z,63.34
2023-02-08T15:42:03.499Z,63.64
2023-02-08T15:44:33.305Z,64.02
2023-02-08T15:47:04.913Z,63.90
2023-02-08T15:49:36.508Z,64.18
2023-02-08T15:52:06.230Z,62.89
2023-02-08T15:54:34.107Z,62.47
2023-02-08T15:57:05.798Z,63.03
2023-02-08T15:59:37.703Z,63.00
2023-02-08T16:02:19.522Z,63.77
2023-02-08T16:04:48.784Z,63.45
2023-02-08T16:07:26.948Z,64.55
2023-02-08T16:09:55.382Z,64.27
2023-02-08T16:12:24.699Z,64.34
2023-02-08T16:14:55.993Z,64.48
2023-02-08T16:17:44.156Z,65.38
2023-02-08T16:20:33.812Z,65.22
2023-02-08T16:23:03.600Z,66.11
2023-02-08T16:25:44.407Z,65.68
2023-02-08T16:28:26.995Z,67.18
2023-02-08T16:30:55.773Z,66.92
2023-02-08T16:33:24.197Z,66.75
2023-02-08T16:35:53.428Z,67.76
2023-02-08T16:38:23.674Z,66.84
2023-02-08T16:40:53.615Z,68.32
2023-02-08T16:43:26.626Z,68.58
2023-02-08T16:46:25.193Z,68.34
2023-02-08T16:48:55.326Z,68.12
2023-02-08T16:51:26.330Z,68.35
2023-02-08T16:53:57.845Z,68.71
2023-02-08T16:56:25.720Z,68.50
2023-02-08T16:58:53.357Z,69.12
2023-02-08T17:01:23.804Z,69.17
2023-02-08T17:03:52.928Z,68.68
2023-02-08T17:06:30.137Z,69.32
2023-02-08T17:08:58.296Z,69.52
2023-02-08T17:11:26.312Z,69.93
2023-02-08T17:13:54.660Z,69.29
2023-02-08T17:16:24.910Z,69.52
2023-02-08T17:18:53.522Z,69.55
2023-02-08T17:21:21.169Z,69.17
2023-02-08T17:23:50.770Z,69.96
2023-02-08T17:26:23.002Z,69.26
2023-02-08T17:28:51.531Z,69.46
2023-02-08T17:31:19.429Z,69.50
2023-02-08T17:33:48.250Z,69.60
2023-02-08T17:36:16.552Z,69.60
2023-02-08T17:38:46.951Z,70.01
2023-02-08T17:41:17.927Z,69.70
2023-02-08T17:43:46.267Z,69.34
2023-02-08T17:46:16.958Z,69.04
2023-02-08T17:48:48.126Z,68.52
2023-02-08T17:51:18.949Z,67.76
2023-02-08T17:53:48.053Z,66.79
2023-02-08T17:56:18.783Z,67.38
2023-02-08T17:58:51.288Z,66.79
2023-02-08T18:01:23.720Z,67.00
2023-02-08T18:03:52.436Z,67.08
2023-02-08T18:06:21.080Z,66.32
2023-02-08T18:08:48.913Z,66.25
2023-02-08T18:11:20.259Z,66.14
2023-02-08T18:13:50.699Z,66.03
2023-02-08T18:16:20.788Z,66.20
2023-02-08T18:18:49.190Z,66.16
2023-02-08T18:21:19.560Z,65.84
2023-02-08T18:23:49.370Z,66.48
2023-02-08T18:26:20.928Z,66.43
2023-02-08T18:28:49.149Z,66.92
2023-02-08T18:31:20.069Z,68.10
2023-02-08T18:33:49.587Z,68.14
2023-02-08T18:36:17.859Z,69.13
2023-02-08T18:38:47.656Z,69.14
2023-02-08T18:41:19.890Z,69.54
2023-02-08T18:43:48.089Z,69.25
2023-02-08T18:46:18.811Z,69.32
2023-02-08T18:48:47.651Z,69.20
2023-02-08T18:51:19.528Z,69.39
2023-02-08T18:53:51.026Z,69.27
2023-02-08T18:56:23.881Z,68.91
2023-02-08T18:58:52.878Z,69.41
2023-02-08T19:01:23.064Z,69.33
2023-02-08T19:03:52.824Z,69.60
2023-02-08T19:06:24.790Z,69.86
2023-02-08T19:08:55.091Z,70.03
2023-02-08T19:11:26.191Z,70.03
2023-02-08T19:13:57.947Z,70.22
2023-02-08T19:16:27.582Z,70.77
2023-02-08T19:18:58.512Z,70.48
2023-02-08T19:21:26.099Z,70.61
2023-02-08T19:23:55.098Z,70.38
2023-02-08T19:26:26.074Z,70.18
2023-02-08T19:28:57.046Z,70.36
2023-02-08T19:31:25.967Z,70.79
2023-02-08T19:33:58.464Z,70.79
2023-02-08T19:36:28.404Z,71.11
2023-02-08T19:38:59.090Z,71.13
2023-02-08T19:41:32.210Z,71.29
2023-02-08T19:44:00.209Z,71.21
2023-02-08T19:46:29.342Z,71.14
2023-02-08T19:49:00.159Z,71.25
2023-02-08T19:51:28.889Z,71.37
2023-02-08T19:53:57.873Z,71.40
2023-02-08T19:56:25.472Z,71.46
2023-02-08T19:58:54.842Z,70.86
2023-02-08T20:01:23.833Z,70.98
2023-02-08T20:03:54.411Z,70.99
2023-02-08T20:06:24.732Z,70.76
2023-02-08T20:08:52.356Z,71.26
2023-02-08T20:11:23.253Z,71.75
2023-02-08T20:13:52.011Z,71.61
2023-02-08T20:16:22.863Z,71.60
2023-02-08T20:18:51.431Z,71.49
2023-02-08T20:21:20.018Z,71.53
2023-02-08T20:23:48.644Z,71.63
2023-02-08T20:26:19.174Z,72.01
2023-02-08T20:28:50.203Z,71.58
2023-02-08T20:31:19.595Z,72.12
2023-02-08T20:33:49.197Z,72.36
2023-02-08T20:36:18.988Z,72.60
2023-02-08T20:38:48.960Z,73.17
2023-02-08T20:41:17.532Z,73.12
2023-02-08T20:43:45.889Z,73.69
2023-02-08T20:46:16.638Z,73.65
2023-02-08T20:48:44.361Z,73.93
2023-02-08T20:51:15.421Z,73.84
2023-02-08T20:53:44.925Z,74.07
2023-02-08T20:56:15.003Z,73.75
2023-02-08T20:58:43.234Z,74.05
2023-02-08T21:01:15.591Z,74.30
2023-02-08T21:03:43.629Z,73.59
2023-02-08T21:06:14.977Z,73.61
2023-02-08T21:08:44.251Z,73.45
2023-02-08T21:11:12.542Z,73.35
2023-02-08T21:13:40.413Z,74.10
2023-02-08T21:16:09.648Z,73.92
2023-02-08T21:18:38.303Z,74.25
2023-02-08T21:21:06.832Z,74.10
2023-02-08T21:23:37.056Z,73.73
2023-02-08T21:26:07.197Z,74.23
2023-02-08T21:28:35.779Z,74.13
2023-02-08T21:31:06.835Z,74.22
2023-02-08T21:33:35.816Z,74.12
2023-02-08T21:36:04.953Z,74.55
2023-02-08T21:38:32.770Z,74.82
2023-02-08T21:41:07.377Z,74.40
2023-02-08T21:43:35.306Z,74.38
2023-02-08T21:46:04.205Z,74.57
2023-02-08T21:48:52.249Z,74.52
2023-02-08T21:51:38.797Z,75.24
2023-02-08T21:54:24.242Z,75.06
2023-02-08T21:56:53.458Z,75.45
2023-02-08T21:59:21.062Z,76.04
2023-02-08T22:01:48.723Z,74.98
2023-02-08T22:04:16.309Z,75.36
2023-02-08T22:06:50.200Z,75.70
2023-02-08T22:09:18.644Z,76.06
2023-02-08T22:11:48.097Z,75.52
2023-02-08T22:14:17.642Z,76.05
2023-02-08T22:16:45.243Z,75.79
2023-02-08T22:19:12.828Z,76.18
2023-02-08T22:21:40.578Z,75.69
2023-02-08T22:24:08.685Z,75.92
2023-02-08T22:26:36.631Z,75.20
2023-02-08T22:29:04.356Z,75.83
2023-02-08T22:31:33.750Z,74.86
2023-02-08T22:34:01.428Z,74.61
2023-02-08T22:36:29.689Z,74.77
2023-02-08T22:38:57.340Z,74.56
2023-02-08T22:41:25.411Z,74.85
2023-02-08T22:43:54.181Z,74.49
2023-02-08T22:46:22.238Z,74.62
2023-02-08T22:48:51.574Z,74.89
2023-02-08T22:51:21.589Z,75.25
2023-02-08T22:53:49.433Z,74.98
2023-02-08T22:56:18.450Z,75.70
2023-02-08T22:58:46.860Z,75.29
2023-02-08T23:01:16.679Z,75.83
2023-02-08T23:03:45.090Z,75.92
2023-02-08T23:06:17.126Z,76.33
2023-02-08T23:08:45.769Z,76.02
2023-02-08T23:11:14.489Z,76.40
2023-02-08T23:13:42.489Z,76.12
2023-02-08T23:16:13.165Z,75.60
2023-02-08T23:18:41.334Z,75.95
2023-02-08T23:21:10.331Z,75.19
2023-02-08T23:23:40.034Z,75.96
2023-02-08T23:26:08.352Z,75.73
2023-02-08T23:28:37.074Z,76.00
2023-02-08T23:31:05.930Z,75.12
2023-02-08T23:33:34.363Z,76.50
2023-02-08T23:36:06.033Z,77.05
2023-02-08T23:38:33.988Z,77.89
2023-02-08T23:41:04.985Z,77.59
2023-02-08T23:43:33.375Z,77.90
2023-02-08T23:46:00.967Z,77.72
2023-02-08T23:48:28.880Z,77.50
2023-02-08T23:50:59.626Z,77.17
2023-02-08T23:53:30.501Z,77.56
2023-02-08T23:56:11.169Z,77.37
2023-02-08T23:58:39.291Z,77.16
